Time;durP1;ratioP1;P1;durP2;ratioP2;P2;SDS_P1;SDS_P2;PMS_P1;PMS_P2;Temp;Humidity;BMP_temperature;BMP_pressure;BME280_temperature;BME280_humidity;BME280_pressure;Samples;Min_cycle;Max_cycle;Signal;HPM_P1;HPM_P2
2021/04/20 00:00:20;;;;;;;32.30;21.37;;;6.80;99.90;;;;;;5077639;28;20226;-80
2021/04/20 00:03:05;;;;;;;38.03;22.77;;;6.80;99.90;;;;;;5073037;28;20213;-79
2021/04/20 00:05:51;;;;;;;33.33;23.37;;;6.70;99.90;;;;;;5061711;28;20704;-77
2021/04/20 00:08:36;;;;;;;35.27;22.27;;;6.70;99.90;;;;;;5079160;28;20234;-80
2021/04/20 00:11:21;;;;;;;37.50;23.87;;;6.60;99.90;;;;;;5076110;28;20577;-80
2021/04/20 00:14:06;;;;;;;35.80;23.77;;;6.60;99.90;;;;;;5071772;28;20233;-75
2021/04/20 00:16:51;;;;;;;39.70;25.10;;;6.60;99.90;;;;;;5085859;28;20256;-80
2021/04/20 00:19:36;;;;;;;38.03;22.57;;;6.50;99.90;;;;;;5073760;28;20257;-78
2021/04/20 00:22:22;;;;;;;42.40;25.30;;;6.50;99.90;;;;;;5083267;28;20213;-78
2021/04/20 00:25:08;;;;;;;44.50;26.33;;;6.50;99.90;;;;;;5087039;28;20201;-80
2021/04/20 00:27:53;;;;;;;48.67;28.57;;;6.40;99.90;;;;;;5087172;28;20214;-79
2021/04/20 00:30:38;;;;;;;55.80;30.93;;;6.40;99.90;;;;;;5075135;28;20214;-79
2021/04/20 00:33:23;;;;;;;52.77;31.27;;;6.40;99.90;;;;;;5072509;28;20206;-77
2021/04/20 00:36:08;;;;;;;57.13;32.03;;;6.40;99.90;;;;;;5083010;28;20205;-78
2021/04/20 00:38:54;;;;;;;58.33;33.40;;;6.40;99.90;;;;;;5088447;28;20254;-78
2021/04/20 00:41:39;;;;;;;59.77;34.90;;;6.30;99.90;;;;;;5081457;28;20298;-77
2021/04/20 00:44:24;;;;;;;61.73;33.87;;;6.30;99.90;;;;;;5083454;28;20221;-78
2021/04/20 00:47:09;;;;;;;55.80;32.37;;;6.30;99.90;;;;;;5076648;28;20221;-77
2021/04/20 00:49:54;;;;;;;57.43;33.03;;;6.30;99.90;;;;;;5085362;28;20230;-79
2021/04/20 00:52:38;;;;;;;59.47;33.47;;;6.30;99.90;;;;;;5080179;28;20261;-79
2021/04/20 00:55:24;;;;;;;57.73;32.80;;;6.30;99.90;;;;;;5076814;28;20238;-78
2021/04/20 00:58:09;;;;;;;58.23;32.83;;;6.30;99.90;;;;;;5078858;28;20217;-78
2021/04/20 01:00:55;;;;;;;56.70;31.83;;;6.30;99.90;;;;;;5074787;28;20201;-79
2021/04/20 01:03:41;;;;;;;59.50;33.53;;;6.30;99.90;;;;;;5073378;28;20210;-80
2021/04/20 01:06:26;;;;;;;58.23;32.80;;;6.20;99.90;;;;;;5080811;28;20248;-77
2021/04/20 01:09:11;;;;;;;58.53;33.63;;;6.20;99.90;;;;;;5089297;28;20213;-76
2021/04/20 01:11:57;;;;;;;57.53;32.77;;;6.20;99.90;;;;;;5088756;28;20241;-77
2021/04/20 01:14:42;;;;;;;53.83;29.77;;;6.20;99.90;;;;;;5075881;28;20213;-78
2021/04/20 01:17:27;;;;;;;56.97;31.83;;;6.20;99.90;;;;;;5083037;28;20211;-80
2021/04/20 01:20:14;;;;;;;49.07;29.47;;;6.10;99.90;;;;;;5073842;28;20307;-79
2021/04/20 01:23:00;;;;;;;58.17;32.53;;;6.10;99.90;;;;;;5082044;28;20202;-80
2021/04/20 01:25:46;;;;;;;53.43;30.83;;;6.10;99.90;;;;;;5078538;28;20214;-76
2021/04/20 01:28:32;;;;;;;54.27;31.43;;;6.10;99.90;;;;;;5081370;28;20264;-79
2021/04/20 01:31:17;;;;;;;56.03;31.97;;;6.10;99.90;;;;;;5080429;28;20202;-80
2021/04/20 01:34:02;;;;;;;57.83;32.10;;;6.00;99.90;;;;;;5068766;28;20218;-79
2021/04/20 01:36:48;;;;;;;60.53;32.47;;;6.00;99.90;;;;;;5066200;28;20272;-79
2021/04/20 01:39:33;;;;;;;57.27;31.50;;;6.00;99.90;;;;;;5075578;28;20230;-78
2021/04/20 01:42:18;;;;;;;54.77;32.07;;;5.90;99.90;;;;;;5072950;28;20756;-77
2021/04/20 01:45:06;;;;;;;52.60;30.30;;;5.90;99.90;;;;;;5076249;28;20221;-80
2021/04/20 01:47:51;;;;;;;57.00;32.37;;;5.90;99.90;;;;;;5070025;28;20195;-77
2021/04/20 01:50:39;;;;;;;56.37;31.73;;;5.80;99.90;;;;;;5070378;28;20214;-77
2021/04/20 01:53:25;;;;;;;59.60;33.23;;;5.80;99.90;;;;;;5076572;28;20202;-78
2021/04/20 01:56:11;;;;;;;63.50;33.67;;;5.80;99.90;;;;;;5071957;28;20202;-78
2021/04/20 01:58:59;;;;;;;57.60;32.20;;;5.80;99.90;;;;;;5075899;28;20280;-77
2021/04/20 02:01:44;;;;;;;59.47;33.07;;;5.80;99.90;;;;;;5078827;28;20746;-78
2021/04/20 02:04:30;;;;;;;57.37;34.73;;;5.80;99.90;;;;;;5076090;28;20202;-74
2021/04/20 02:07:15;;;;;;;65.40;33.77;;;5.70;99.90;;;;;;5066169;28;20691;-78
2021/04/20 02:10:00;;;;;;;75.63;36.13;;;5.70;99.90;;;;;;5078549;28;20233;-79
2021/04/20 02:12:45;;;;;;;67.93;35.77;;;5.70;99.90;;;;;;5078664;28;20205;-78
2021/04/20 02:15:30;;;;;;;84.30;40.77;;;5.70;99.90;;;;;;5072331;28;20257;-80
2021/04/20 02:18:19;;;;;;;81.40;40.87;;;5.70;99.90;;;;;;5073252;28;20233;-79
2021/04/20 02:21:05;;;;;;;86.43;41.37;;;5.80;99.90;;;;;;5063623;28;20291;-78
2021/04/20 02:23:51;;;;;;;101.53;47.47;;;5.80;99.90;;;;;;5066499;28;20201;-79
2021/04/20 02:26:38;;;;;;;111.87;48.63;;;5.80;99.90;;;;;;5076541;28;20258;-78
2021/04/20 02:29:23;;;;;;;113.03;47.03;;;5.90;99.90;;;;;;5071562;28;20233;-79
2021/04/20 02:32:08;;;;;;;118.67;50.13;;;5.90;99.90;;;;;;5068180;28;20210;-78
2021/04/20 02:34:53;;;;;;;125.97;52.40;;;5.90;99.90;;;;;;5065310;28;20274;-79
2021/04/20 02:37:40;;;;;;;127.27;54.80;;;6.00;99.90;;;;;;5079926;28;20295;-79
2021/04/20 02:40:27;;;;;;;145.73;58.47;;;6.00;99.90;;;;;;5077975;28;20259;-77
2021/04/20 02:43:12;;;;;;;147.83;59.87;;;6.10;99.90;;;;;;5064931;28;20265;-77
2021/04/20 02:45:59;;;;;;;141.87;57.50;;;6.10;99.90;;;;;;5076444;28;20233;-77
2021/04/20 02:48:45;;;;;;;138.73;53.20;;;6.20;99.90;;;;;;5074839;28;20225;-78
2021/04/20 02:51:30;;;;;;;117.50;49.23;;;6.20;99.90;;;;;;5071815;28;20237;-79
2021/04/20 02:54:16;;;;;;;106.60;46.37;;;6.20;99.90;;;;;;5075424;28;20313;-77
2021/04/20 02:57:03;;;;;;;92.13;43.70;;;6.20;99.90;;;;;;5075213;28;20205;-78
2021/04/20 02:59:49;;;;;;;74.97;38.43;;;6.20;99.90;;;;;;5077201;28;20225;-77
2021/04/20 03:02:37;;;;;;;64.63;35.23;;;6.20;99.90;;;;;;5073962;28;20213;-78
2021/04/20 03:05:28;;;;;;;62.10;34.37;;;6.20;99.90;;;;;;5071949;28;20276;-74
2021/04/20 03:08:14;;;;;;;54.93;31.20;;;6.10;99.90;;;;;;5080601;28;20209;-78
2021/04/20 03:11:04;;;;;;;55.93;32.70;;;6.10;99.90;;;;;;5080442;28;20297;-78
2021/04/20 03:13:50;;;;;;;49.37;29.33;;;6.10;99.90;;;;;;5078364;28;20214;-79
2021/04/20 03:16:36;;;;;;;52.83;30.60;;;6.00;99.90;;;;;;5080999;28;20209;-79
2021/04/20 03:19:21;;;;;;;54.87;30.23;;;5.90;99.90;;;;;;5078053;28;20225;-77
2021/04/20 03:22:08;;;;;;;51.40;30.57;;;5.90;99.90;;;;;;5072771;28;20202;-79
2021/04/20 03:25:17;;;;;;;48.60;29.77;;;5.80;99.90;;;;;;5080456;28;20213;-79
2021/04/20 03:28:02;;;;;;;49.63;28.03;;;5.80;99.90;;;;;;5077936;28;20202;-77
2021/04/20 03:30:47;;;;;;;48.33;28.60;;;5.70;99.90;;;;;;5073129;28;20585;-78
2021/04/20 03:33:36;;;;;;;46.07;28.23;;;5.60;99.90;;;;;;5075925;28;20209;-78
2021/04/20 03:36:28;;;;;;;44.97;26.80;;;5.60;99.90;;;;;;5074812;28;20194;-80
2021/04/20 03:39:16;;;;;;;49.73;27.97;;;5.50;99.90;;;;;;5068626;28;20238;-77
2021/04/20 03:42:05;;;;;;;51.23;28.23;;;5.50;99.90;;;;;;5066529;28;20213;-74
2021/04/20 03:44:54;;;;;;;48.50;27.20;;;5.40;99.90;;;;;;5074837;28;20245;-79
2021/04/20 03:47:41;;;;;;;49.37;29.13;;;5.40;99.90;;;;;;5079496;28;20292;-77
2021/04/20 03:50:32;;;;;;;51.93;29.10;;;5.30;99.90;;;;;;5065501;28;20213;-79
2021/04/20 03:53:18;;;;;;;49.70;28.57;;;5.30;99.90;;;;;;5071078;28;20249;-80
2021/04/20 03:56:06;;;;;;;48.80;26.73;;;5.30;99.90;;;;;;5075609;28;20214;-79
2021/04/20 03:58:53;;;;;;;45.77;26.87;;;5.30;99.90;;;;;;5075893;28;20225;-77
2021/04/20 04:01:41;;;;;;;64.00;34.03;;;5.20;99.90;;;;;;5071609;28;20218;-79
2021/04/20 04:04:29;;;;;;;52.63;27.97;;;5.20;99.90;;;;;;5068428;28;20230;-79
2021/04/20 04:07:16;;;;;;;51.37;28.53;;;5.20;99.90;;;;;;5080485;28;20277;-79
2021/04/20 04:10:03;;;;;;;48.57;27.77;;;5.10;99.90;;;;;;5070132;28;20256;-77
2021/04/20 04:12:56;;;;;;;52.47;29.80;;;5.10;99.90;;;;;;5060820;28;20230;-78
2021/04/20 04:15:41;;;;;;;50.70;28.57;;;5.00;99.90;;;;;;5060902;28;20572;-77
2021/04/20 04:18:28;;;;;;;47.90;27.67;;;5.00;99.90;;;;;;5080226;28;20305;-78
2021/04/20 04:21:17;;;;;;;53.20;29.03;;;5.00;99.90;;;;;;5076004;28;20214;-74
2021/04/20 04:24:05;;;;;;;56.07;30.63;;;4.90;99.90;;;;;;5074318;28;20268;-74
2021/04/20 04:26:53;;;;;;;61.90;31.03;;;5.00;99.90;;;;;;5083568;28;20251;-75
2021/04/20 04:29:41;;;;;;;76.83;33.53;;;4.90;99.90;;;;;;5081937;28;20277;-80
2021/04/20 04:32:29;;;;;;;55.27;30.93;;;4.90;99.90;;;;;;5082562;28;20205;-76
2021/04/20 04:35:14;;;;;;;53.43;29.60;;;4.90;99.90;;;;;;5082934;28;20218;-81
2021/04/20 04:38:01;;;;;;;55.07;30.80;;;4.90;99.90;;;;;;5075390;28;20236;-81
2021/04/20 04:40:47;;;;;;;55.37;28.50;;;4.90;99.90;;;;;;5089118;28;20207;-79
2021/04/20 04:43:32;;;;;;;52.53;29.00;;;4.90;99.90;;;;;;5076120;28;20230;-79
2021/04/20 04:46:21;;;;;;;53.77;27.20;;;4.90;99.90;;;;;;5079531;28;20234;-80
2021/04/20 04:49:08;;;;;;;61.00;32.53;;;4.80;99.90;;;;;;5076967;28;20233;-80
2021/04/20 04:51:54;;;;;;;79.73;37.13;;;4.80;99.90;;;;;;5084421;28;20276;-79
2021/04/20 04:54:39;;;;;;;84.10;38.53;;;4.80;99.90;;;;;;5085401;28;20261;-80
2021/04/20 04:57:26;;;;;;;88.03;40.87;;;4.80;99.90;;;;;;5086879;28;20197;-81
2021/04/20 05:00:13;;;;;;;96.57;43.30;;;4.80;99.90;;;;;;5097442;28;20244;-79
2021/04/20 05:02:59;;;;;;;90.47;41.83;;;4.80;99.90;;;;;;5067153;28;20211;-80
2021/04/20 05:05:46;;;;;;;96.23;41.93;;;4.80;99.90;;;;;;5092666;28;20221;-78
2021/04/20 05:08:31;;;;;;;104.10;46.20;;;4.90;99.90;;;;;;5093651;28;20214;-80
2021/04/20 05:11:16;;;;;;;116.37;52.23;;;4.90;99.90;;;;;;5077469;28;20205;-80
2021/04/20 05:14:01;;;;;;;145.97;58.00;;;4.90;99.90;;;;;;5090005;28;20256;-76
2021/04/20 05:16:48;;;;;;;159.67;57.37;;;4.90;99.90;;;;;;5071378;28;20237;-80
2021/04/20 05:19:35;;;;;;;153.27;57.37;;;5.00;99.90;;;;;;5081558;28;20730;-79
2021/04/20 05:22:20;;;;;;;174.63;66.20;;;5.00;99.90;;;;;;5075334;28;20202;-80
2021/04/20 05:25:09;;;;;;;199.10;68.53;;;5.00;99.90;;;;;;5078504;28;20208;-78
2021/04/20 05:27:55;;;;;;;216.47;72.97;;;5.10;99.90;;;;;;5091907;28;20201;-79
2021/04/20 05:30:40;;;;;;;226.43;76.23;;;5.20;99.90;;;;;;5087612;28;20196;-77
2021/04/20 05:33:25;;;;;;;208.27;65.10;;;5.30;99.90;;;;;;5083038;28;20211;-77
2021/04/20 05:36:11;;;;;;;193.40;64.60;;;5.30;99.90;;;;;;5096379;28;20236;-75
2021/04/20 05:38:58;;;;;;;206.90;67.53;;;5.40;99.90;;;;;;5097834;28;20228;-78
2021/04/20 05:41:44;;;;;;;199.50;65.10;;;5.40;99.90;;;;;;5080540;28;20251;-74
2021/04/20 05:44:32;;;;;;;210.23;72.50;;;5.50;99.90;;;;;;5075289;28;20233;-80
2021/04/20 05:47:17;;;;;;;189.90;60.97;;;5.60;99.90;;;;;;5078059;28;20578;-80
2021/04/20 05:50:06;;;;;;;187.23;60.40;;;5.60;99.90;;;;;;5071456;28;20268;-78
2021/04/20 05:52:52;;;;;;;183.83;62.63;;;5.70;99.90;;;;;;5083058;28;20682;-79
2021/04/20 05:55:37;;;;;;;194.47;71.03;;;5.70;99.90;;;;;;5080835;28;20231;-80
2021/04/20 05:58:22;;;;;;;216.00;70.33;;;5.80;99.90;;;;;;5084132;28;20226;-74
2021/04/20 06:01:07;;;;;;;220.23;73.10;;;5.80;99.90;;;;;;5087753;28;20314;-78
2021/04/20 06:03:53;;;;;;;226.13;72.57;;;5.90;99.90;;;;;;5083313;28;20365;-78
2021/04/20 06:06:40;;;;;;;228.70;72.60;;;5.90;99.90;;;;;;5086552;28;20289;-77
2021/04/20 06:09:26;;;;;;;228.70;79.00;;;6.00;99.90;;;;;;5084053;28;20237;-79
2021/04/20 06:12:12;;;;;;;224.70;78.53;;;6.00;99.90;;;;;;5077093;28;20230;-77
2021/04/20 06:14:57;;;;;;;233.33;77.50;;;6.10;99.90;;;;;;5082283;28;20205;-79
2021/04/20 06:17:42;;;;;;;233.27;78.10;;;6.20;99.90;;;;;;5086249;28;20737;-80
2021/04/20 06:20:28;;;;;;;228.67;78.47;;;6.20;99.90;;;;;;5076574;28;20341;-77
2021/04/20 06:23:14;;;;;;;225.23;80.17;;;6.30;99.90;;;;;;5079151;28;20234;-79
2021/04/20 06:26:02;;;;;;;242.50;82.87;;;6.30;99.90;;;;;;5069850;28;20232;-79
2021/04/20 06:28:48;;;;;;;249.33;83.67;;;6.40;99.90;;;;;;5066078;28;20739;-79
2021/04/20 06:31:33;;;;;;;246.07;83.87;;;6.40;99.90;;;;;;5069671;28;20261;-77
2021/04/20 06:34:18;;;;;;;248.07;78.50;;;6.50;99.90;;;;;;5073526;28;20261;-74
2021/04/20 06:37:03;;;;;;;226.80;73.43;;;6.60;99.90;;;;;;5071383;28;20221;-79
2021/04/20 06:39:48;;;;;;;218.57;79.83;;;6.60;99.90;;;;;;5077163;28;20371;-80
2021/04/20 06:42:40;;;;;;;213.37;80.17;;;6.70;99.90;;;;;;5081781;28;20275;-78
2021/04/20 06:45:29;;;;;;;226.37;75.77;;;6.80;99.90;;;;;;5075886;28;20218;-78
2021/04/20 06:48:23;;;;;;;238.70;80.70;;;6.80;99.90;;;;;;5070167;28;20282;-77
2021/04/20 06:51:14;;;;;;;225.20;79.80;;;6.90;99.90;;;;;;5065078;28;20221;-78
2021/04/20 06:54:05;;;;;;;223.73;84.60;;;7.00;99.90;;;;;;5061752;28;20202;-79
2021/04/20 06:56:54;;;;;;;235.73;77.83;;;7.00;99.90;;;;;;5075304;28;20199;-79
2021/04/20 06:59:47;;;;;;;227.87;77.73;;;7.10;99.90;;;;;;5067047;28;20298;-79
2021/04/20 07:02:41;;;;;;;232.43;79.50;;;7.20;99.90;;;;;;5070443;28;20242;-79
2021/04/20 07:05:32;;;;;;;247.30;87.67;;;7.30;99.90;;;;;;5061218;28;20202;-79
2021/04/20 07:08:23;;;;;;;239.43;82.83;;;7.40;99.90;;;;;;5070003;28;20221;-77
2021/04/20 07:11:11;;;;;;;227.30;82.97;;;7.50;99.90;;;;;;5076400;28;20224;-79
2021/04/20 07:13:59;;;;;;;236.33;85.27;;;7.50;99.90;;;;;;5073344;28;20226;-77
2021/04/20 07:16:54;;;;;;;245.00;82.87;;;7.60;99.90;;;;;;5077830;28;20199;-79
2021/04/20 07:20:03;;;;;;;239.37;89.23;;;7.70;99.90;;;;;;5078378;28;20319;-80
2021/04/20 07:23:13;;;;;;;241.00;87.17;;;7.80;99.90;;;;;;5064453;28;20220;-77
2021/04/20 07:26:10;;;;;;;258.73;90.33;;;7.90;99.90;;;;;;5067797;28;20267;-77
2021/04/20 07:29:10;;;;;;;254.97;92.87;;;8.00;99.90;;;;;;5071878;28;20229;-78
2021/04/20 07:32:06;;;;;;;255.73;95.23;;;8.10;99.90;;;;;;5061811;28;20234;-80
2021/04/20 07:35:09;;;;;;;274.77;101.70;;;8.20;99.90;;;;;;5059146;28;20277;-77
2021/04/20 07:37:58;;;;;;;275.67;98.97;;;8.30;99.90;;;;;;5059227;28;20246;-78
2021/04/20 07:40:52;;;;;;;283.60;101.77;;;8.40;99.90;;;;;;5065496;28;20222;-78
2021/04/20 07:43:57;;;;;;;270.43;100.77;;;8.50;99.90;;;;;;5070780;28;20264;-78
2021/04/20 07:46:47;;;;;;;252.63;105.27;;;8.60;99.90;;;;;;5068477;28;20256;-79
2021/04/20 07:49:41;;;;;;;239.90;98.10;;;8.70;99.90;;;;;;5062634;28;20233;-79
2021/04/20 07:52:32;;;;;;;227.73;92.63;;;8.90;99.90;;;;;;5073417;28;20241;-80
2021/04/20 07:55:20;;;;;;;208.80;86.57;;;9.00;99.90;;;;;;5068043;28;20700;-79
2021/04/20 07:58:08;;;;;;;180.97;81.03;;;9.10;99.90;;;;;;5065432;28;20222;-78
2021/04/20 08:00:59;;;;;;;160.70;76.90;;;9.20;99.90;;;;;;5078556;28;20222;-77
2021/04/20 08:03:50;;;;;;;164.50;77.53;;;9.30;99.90;;;;;;5071972;28;20263;-79
2021/04/20 08:06:38;;;;;;;138.90;68.83;;;9.40;99.90;;;;;;5074891;28;20295;-77
2021/04/20 08:09:29;;;;;;;127.33;67.53;;;9.60;99.90;;;;;;5060044;28;20277;-80
2021/04/20 08:12:18;;;;;;;104.27;58.30;;;9.70;99.90;;;;;;5069097;28;20213;-81
2021/04/20 08:15:10;;;;;;;85.57;50.63;;;9.80;99.90;;;;;;5066052;28;20227;-80
2021/04/20 08:18:00;;;;;;;74.27;44.33;;;10.00;99.90;;;;;;5075789;28;20252;-78
2021/04/20 08:20:46;;;;;;;74.90;46.30;;;10.10;99.90;;;;;;5071932;28;20253;-80
2021/04/20 08:23:36;;;;;;;72.40;44.90;;;10.20;99.90;;;;;;5063882;28;20208;-79
2021/04/20 08:26:25;;;;;;;63.17;40.47;;;10.30;99.90;;;;;;5075138;28;20282;-80
2021/04/20 08:29:15;;;;;;;65.73;41.57;;;10.50;99.90;;;;;;5077824;28;20716;-81
2021/04/20 08:32:07;;;;;;;59.10;39.83;;;10.60;99.90;;;;;;5069447;28;20705;-80
2021/04/20 08:34:59;;;;;;;59.60;40.67;;;10.70;99.90;;;;;;5062879;28;20329;-80
2021/04/20 08:38:13;;;;;;;63.97;39.13;;;10.90;99.90;;;;;;5078357;28;20295;-80
2021/04/20 08:41:07;;;;;;;53.10;37.00;;;11.00;99.90;;;;;;5072906;28;20248;-80
2021/04/20 08:43:59;;;;;;;49.97;34.00;;;11.20;99.90;;;;;;5073956;28;20198;-80
2021/04/20 08:46:53;;;;;;;49.40;34.20;;;11.30;99.90;;;;;;5080079;28;20199;-80
2021/04/20 08:49:44;;;;;;;46.47;33.13;;;11.40;99.90;;;;;;5064877;28;20222;-80
2021/04/20 08:52:39;;;;;;;54.17;35.90;;;11.60;99.90;;;;;;5070762;28;20327;-80
2021/04/20 08:55:35;;;;;;;42.90;31.20;;;11.80;99.90;;;;;;5069587;28;20751;-79
2021/04/20 08:58:38;;;;;;;47.97;31.73;;;11.90;99.90;;;;;;5079017;28;20238;-80
2021/04/20 09:01:34;;;;;;;47.80;31.73;;;12.10;99.90;;;;;;5067869;28;20249;-80
2021/04/20 09:04:54;;;;;;;43.57;30.87;;;12.20;99.90;;;;;;5074022;28;20603;-77
2021/04/20 09:07:51;;;;;;;42.77;32.20;;;12.40;99.90;;;;;;5059428;28;20266;-80
2021/04/20 09:10:42;;;;;;;41.97;30.47;;;12.60;99.90;;;;;;5073940;28;20206;-80
2021/04/20 09:13:32;;;;;;;43.53;30.13;;;12.70;99.90;;;;;;5071084;28;20286;-81
2021/04/20 09:16:20;;;;;;;39.13;28.70;;;12.90;99.90;;;;;;5059466;28;20584;-81
2021/04/20 09:19:10;;;;;;;35.90;25.73;;;13.10;99.90;;;;;;5073379;28;20630;-79
2021/04/20 09:22:05;;;;;;;31.77;22.83;;;13.30;99.90;;;;;;5069216;28;20215;-78
2021/04/20 09:25:03;;;;;;;32.90;24.23;;;13.50;99.90;;;;;;5065501;28;20721;-77
2021/04/20 09:27:56;;;;;;;32.27;22.77;;;13.90;99.90;;;;;;5078494;28;20247;-77
2021/04/20 09:30:47;;;;;;;26.33;19.03;;;14.30;99.90;;;;;;5068865;28;20278;-78
2021/04/20 09:33:38;;;;;;;26.70;20.87;;;14.90;99.90;;;;;;5061984;28;20206;-79
2021/04/20 09:36:26;;;;;;;28.67;21.37;;;15.60;99.90;;;;;;5076113;28;20237;-79
2021/04/20 09:39:13;;;;;;;29.77;22.70;;;16.30;99.90;;;;;;5067501;28;20241;-78
2021/04/20 09:42:01;;;;;;;30.63;23.30;;;17.20;99.90;;;;;;5066935;28;20254;-80
2021/04/20 09:44:57;;;;;;;27.73;21.57;;;18.20;99.90;;;;;;5078799;28;20230;-80
2021/04/20 09:47:56;;;;;;;29.77;23.57;;;19.10;99.90;;;;;;5072893;28;20286;-80
2021/04/20 09:50:50;;;;;;;24.83;20.57;;;20.20;99.90;;;;;;5068146;28;20206;-78
2021/04/20 09:53:45;;;;;;;26.47;20.73;;;21.20;99.90;;;;;;5081302;28;20212;-80
2021/04/20 09:56:34;;;;;;;27.67;23.13;;;22.10;99.90;;;;;;5078247;28;20209;-80
2021/04/20 09:59:25;;;;;;;25.97;21.93;;;23.00;99.90;;;;;;5067771;28;20709;-79
2021/04/20 10:02:25;;;;;;;25.37;21.13;;;23.70;99.30;;;;;;5067446;28;20292;-79
2021/04/20 10:05:17;;;;;;;24.67;19.43;;;24.60;97.70;;;;;;5078861;28;20238;-80
2021/04/20 10:08:18;;;;;;;22.43;19.97;;;25.30;93.60;;;;;;5084388;28;20217;-80
2021/04/20 10:11:12;;;;;;;20.67;16.73;;;26.10;85.20;;;;;;5073963;28;20216;-78
2021/04/20 10:14:17;;;;;;;20.23;17.77;;;26.70;79.80;;;;;;5083165;28;20245;-79
2021/04/20 10:17:10;;;;;;;18.33;16.42;;;27.40;79.20;;;;;;5084537;28;20215;-79
2021/04/20 10:20:13;;;;;;;21.83;18.25;;;28.00;76.90;;;;;;5079302;28;20222;-80
2021/04/20 10:23:12;;;;;;;21.00;18.77;;;28.60;70.40;;;;;;5082720;28;20235;-79
2021/04/20 10:26:04;;;;;;;20.58;18.10;;;29.10;64.80;;;;;;5084757;28;20283;-78
2021/04/20 10:28:57;;;;;;;20.42;18.33;;;29.60;64.50;;;;;;5075488;28;20286;-80
2021/04/20 10:31:49;;;;;;;22.00;19.73;;;30.10;65.50;;;;;;5063435;28;20211;-78
2021/04/20 10:34:35;;;;;;;22.17;19.67;;;30.40;63.20;;;;;;5063096;28;20214;-78
2021/04/20 10:37:38;;;;;;;22.40;20.08;;;31.00;59.70;;;;;;5075543;28;20213;-78
2021/04/20 10:40:28;;;;;;;21.65;19.48;;;31.40;58.30;;;;;;5069137;28;20816;-79
2021/04/20 10:43:16;;;;;;;22.70;20.35;;;31.80;53.80;;;;;;5064023;28;20276;-79
2021/04/20 10:46:08;;;;;;;20.33;18.23;;;32.20;52.80;;;;;;5068595;28;20589;-78
2021/04/20 10:48:55;;;;;;;20.98;18.98;;;32.50;57.40;;;;;;5067415;28;20230;-79
2021/04/20 10:51:41;;;;;;;22.65;20.05;;;32.70;53.80;;;;;;5071820;28;20696;-79
2021/04/20 10:54:34;;;;;;;22.77;20.63;;;33.00;54.00;;;;;;5072703;28;20210;-80
2021/04/20 10:57:21;;;;;;;19.90;17.90;;;33.20;51.30;;;;;;5082893;28;20263;-79
2021/04/20 11:00:08;;;;;;;18.73;16.83;;;33.50;48.60;;;;;;5087563;28;20225;-80
2021/04/20 11:02:56;;;;;;;19.67;17.63;;;33.80;47.30;;;;;;5071179;28;20213;-80
2021/04/20 11:05:47;;;;;;;19.63;17.73;;;34.00;47.20;;;;;;5075568;28;20233;-80
2021/04/20 11:08:38;;;;;;;20.27;18.17;;;34.20;46.90;;;;;;5071917;28;20229;-80
2021/04/20 11:11:23;;;;;;;14.88;13.48;;;34.40;45.60;;;;;;5059806;28;20397;-81
2021/04/20 11:14:09;;;;;;;16.38;14.60;;;34.50;44.30;;;;;;5067657;28;20214;-80
2021/04/20 11:16:54;;;;;;;16.23;14.52;;;34.60;44.20;;;;;;5070189;28;20739;-82
2021/04/20 11:19:45;;;;;;;15.75;14.10;;;34.60;42.70;;;;;;5078261;28;20237;-81
2021/04/20 11:22:36;;;;;;;15.13;13.55;;;34.80;44.80;;;;;;5075284;28;20260;-81
2021/04/20 11:25:26;;;;;;;16.42;14.70;;;34.90;44.40;;;;;;5057494;28;20638;-80
2021/04/20 11:28:17;;;;;;;18.08;16.27;;;35.20;44.00;;;;;;5076092;28;20623;-80
2021/04/20 11:31:05;;;;;;;17.83;15.52;;;35.40;47.00;;;;;;5063856;28;20808;-80
2021/04/20 11:33:55;;;;;;;16.10;14.40;;;35.60;45.30;;;;;;5068242;28;20657;-81
2021/04/20 11:36:43;;;;;;;15.85;14.18;;;35.80;46.00;;;;;;5066335;28;20209;-80
2021/04/20 11:39:31;;;;;;;13.98;12.18;;;36.10;43.00;;;;;;5065328;28;20302;-80
2021/04/20 11:42:23;;;;;;;12.57;11.27;;;36.40;44.30;;;;;;5068388;28;20213;-80
2021/04/20 11:45:15;;;;;;;14.23;12.70;;;36.60;45.50;;;;;;5086572;28;20229;-80
2021/04/20 11:48:08;;;;;;;13.68;12.30;;;36.90;41.20;;;;;;5074768;28;20260;-80
2021/04/20 11:50:56;;;;;;;12.05;10.95;;;37.20;40.20;;;;;;5077515;28;20222;-81
2021/04/20 11:53:44;;;;;;;13.18;11.88;;;37.40;40.20;;;;;;5078292;28;20201;-81
2021/04/20 11:56:35;;;;;;;14.50;13.05;;;37.50;38.90;;;;;;5070164;28;20210;-81
2021/04/20 11:59:21;;;;;;;13.43;12.13;;;37.60;39.10;;;;;;5078969;28;20233;-81
2021/04/20 12:02:07;;;;;;;14.55;12.93;;;37.60;38.80;;;;;;5080461;28;20285;-81
2021/04/20 12:04:59;;;;;;;14.95;13.45;;;37.60;38.30;;;;;;5079653;28;20256;-80
2021/04/20 12:07:48;;;;;;;12.63;11.38;;;37.60;37.60;;;;;;5080374;28;20202;-81
2021/04/20 12:10:34;;;;;;;12.57;11.35;;;37.50;40.40;;;;;;5087304;28;20205;-80
2021/04/20 12:13:26;;;;;;;13.98;12.45;;;37.40;40.80;;;;;;5090550;28;20297;-80
2021/04/20 12:16:12;;;;;;;17.08;15.27;;;37.30;39.60;;;;;;5090656;28;20210;-79
2021/04/20 12:18:58;;;;;;;15.82;14.23;;;37.20;37.70;;;;;;5093970;28;20230;-79
2021/04/20 12:21:47;;;;;;;14.10;12.70;;;37.00;37.40;;;;;;5084384;28;20333;-79
2021/04/20 12:24:35;;;;;;;13.13;11.82;;;36.50;38.50;;;;;;5085394;28;20225;-79
2021/04/20 12:27:24;;;;;;;14.60;13.10;;;36.00;39.70;;;;;;5085372;28;20268;-80
2021/04/20 12:30:12;;;;;;;15.82;14.23;;;35.60;39.80;;;;;;5091542;28;20252;-80
2021/04/20 12:32:58;;;;;;;14.60;13.10;;;35.20;39.40;;;;;;5072129;28;20301;-79
2021/04/20 12:35:44;;;;;;;14.93;13.35;;;34.90;39.90;;;;;;5080577;28;20278;-79
2021/04/20 12:38:31;;;;;;;15.60;13.10;;;34.40;40.00;;;;;;5079549;28;20287;-80
2021/04/20 12:41:17;;;;;;;14.32;12.30;;;33.90;40.20;;;;;;5076886;28;20261;-79
2021/04/20 12:44:05;;;;;;;15.63;14.00;;;33.40;40.00;;;;;;5091019;28;20280;-79
2021/04/20 12:46:53;;;;;;;14.05;12.30;;;32.80;40.30;;;;;;5092389;28;20263;-79
2021/04/20 12:49:44;;;;;;;16.05;14.30;;;32.20;41.40;;;;;;5076108;28;20289;-80
2021/04/20 12:52:30;;;;;;;17.20;13.95;;;31.60;42.30;;;;;;5081006;28;20215;-81
2021/04/20 12:55:21;;;;;;;15.80;14.07;;;31.00;43.60;;;;;;5081261;28;20256;-81
2021/04/20 12:58:08;;;;;;;15.82;14.15;;;30.50;43.30;;;;;;5073706;28;20197;-79
2021/04/20 13:00:59;;;;;;;14.20;12.65;;;30.30;44.90;;;;;;5069657;28;20211;-82
2021/04/20 13:03:45;;;;;;;15.73;13.73;;;30.10;45.20;;;;;;5079935;28;20225;-80
2021/04/20 13:06:31;;;;;;;15.82;13.38;;;30.00;44.30;;;;;;5074002;28;20711;-81
2021/04/20 13:09:24;;;;;;;15.45;13.70;;;30.00;45.20;;;;;;5077901;28;20278;-79
2021/04/20 13:12:13;;;;;;;15.80;13.95;;;30.10;46.80;;;;;;5065946;28;20205;-80
2021/04/20 13:14:59;;;;;;;14.25;12.82;;;30.20;45.80;;;;;;5059044;28;20253;-78
2021/04/20 13:17:44;;;;;;;14.20;12.68;;;30.50;45.00;;;;;;5063532;28;20212;-80
2021/04/20 13:20:32;;;;;;;15.90;14.13;;;30.50;44.00;;;;;;5067233;28;20252;-80
2021/04/20 13:23:21;;;;;;;15.02;13.52;;;30.60;44.40;;;;;;5060940;28;20202;-80
2021/04/20 13:26:09;;;;;;;14.60;13.02;;;30.50;45.40;;;;;;5073977;28;20219;-80
2021/04/20 13:28:57;;;;;;;15.07;13.48;;;30.60;46.70;;;;;;5062180;28;20640;-81
2021/04/20 13:31:47;;;;;;;14.60;13.10;;;30.60;45.30;;;;;;5060169;28;20253;-80
2021/04/20 13:34:36;;;;;;;16.30;13.88;;;30.70;46.20;;;;;;5063480;28;20205;-81
2021/04/20 13:37:31;;;;;;;17.00;13.80;;;31.00;46.10;;;;;;5079771;28;20206;-81
2021/04/20 13:40:19;;;;;;;16.40;14.60;;;31.20;45.30;;;;;;5066456;28;20310;-80
2021/04/20 13:43:05;;;;;;;15.52;13.35;;;31.50;45.50;;;;;;5071219;28;20210;-81
2021/04/20 13:45:53;;;;;;;14.88;13.38;;;31.70;47.10;;;;;;5079815;28;20298;-80
2021/04/20 13:48:38;;;;;;;16.27;14.52;;;32.00;45.50;;;;;;5075865;28;20222;-80
2021/04/20 13:51:27;;;;;;;17.27;14.80;;;32.20;43.90;;;;;;5068911;28;20272;-80
2021/04/20 13:54:12;;;;;;;18.83;16.45;;;32.60;43.70;;;;;;5075050;28;20244;-81
2021/04/20 13:56:59;;;;;;;18.45;14.50;;;32.80;42.80;;;;;;5076685;28;20304;-81
2021/04/20 13:59:49;;;;;;;17.10;14.55;;;33.00;43.20;;;;;;5077344;28;20238;-80
2021/04/20 14:02:39;;;;;;;16.90;14.10;;;33.10;42.40;;;;;;5070495;28;20223;-79
2021/04/20 14:05:30;;;;;;;15.60;13.30;;;33.00;42.10;;;;;;5073929;28;20206;-81
2021/04/20 14:08:24;;;;;;;13.15;11.75;;;32.70;42.60;;;;;;5072800;28;20325;-80
2021/04/20 14:11:10;;;;;;;13.82;12.32;;;32.30;42.40;;;;;;5076222;28;20260;-80
2021/04/20 14:13:55;;;;;;;13.85;11.20;;;31.80;43.30;;;;;;5077603;28;20719;-79
2021/04/20 14:16:41;;;;;;;13.25;11.85;;;31.20;43.20;;;;;;5077787;28;20210;-78
2021/04/20 14:19:29;;;;;;;17.90;13.02;;;30.60;43.70;;;;;;5087808;28;20255;-80